createdAt,value
2018-03-14T00:01:00.404Z,5.21
2018-03-14T00:02:09.249Z,5.4
2018-03-14T00:03:18.066Z,5.18
2018-03-14T00:04:26.992Z,5.24
2018-03-14T00:05:35.820Z,5.15
2018-03-14T00:06:44.649Z,5.1
2018-03-14T00:07:53.476Z,5.25
2018-03-14T00:09:02.606Z,5.18
2018-03-14T00:10:11.546Z,5.1
2018-03-14T00:11:20.372Z,4.99
2018-03-14T00:12:29.515Z,5
2018-03-14T00:13:38.662Z,4.77
2018-03-14T00:14:47.492Z,4.77
2018-03-14T00:15:56.324Z,4.94
2018-03-14T00:17:05.152Z,4.94
2018-03-14T00:18:13.979Z,4.82
2018-03-14T00:19:22.849Z,4.85
2018-03-14T00:20:31.641Z,4.99
2018-03-14T00:21:40.769Z,4.97
2018-03-14T00:22:49.596Z,5.09
2018-03-14T00:23:58.427Z,5.04
2018-03-14T00:25:07.550Z,4.97
2018-03-14T00:26:16.381Z,4.86
2018-03-14T00:27:25.514Z,4.82
2018-03-14T00:28:34.339Z,5.06
2018-03-14T00:29:43.168Z,4.85
2018-03-14T00:30:51.994Z,4.82
2018-03-14T00:32:00.825Z,4.86
2018-03-14T00:33:09.654Z,4.99
2018-03-14T00:34:18.480Z,5.03
2018-03-14T00:35:27.596Z,4.94
2018-03-14T00:36:36.422Z,4.94
2018-03-14T00:37:45.250Z,4.94
2018-03-14T00:38:54.081Z,5.17
2018-03-14T00:40:02.907Z,5.04
2018-03-14T00:41:11.736Z,5.06
2018-03-14T00:42:20.564Z,4.99
2018-03-14T00:43:29.397Z,4.91
2018-03-14T00:44:38.274Z,4.92
2018-03-14T00:45:47.100Z,4.88
2018-03-14T00:46:56.224Z,4.84
2018-03-14T00:48:05.051Z,4.73
2018-03-14T00:49:13.880Z,4.78
2018-03-14T00:50:22.807Z,4.94
2018-03-14T00:51:31.637Z,4.85
2018-03-14T00:52:40.469Z,4.8
2018-03-14T00:53:49.296Z,4.84
2018-03-14T00:54:58.124Z,4.85
2018-03-14T00:56:07.252Z,4.82
2018-03-14T00:57:16.080Z,4.85
2018-03-14T00:58:24.910Z,4.82
2018-03-14T00:59:33.743Z,4.94
2018-03-14T01:00:42.570Z,5.13
2018-03-14T01:01:51.599Z,4.97
2018-03-14T01:03:00.719Z,4.73
2018-03-14T01:04:09.829Z,4.8
2018-03-14T01:05:18.656Z,4.82
2018-03-14T01:06:27.483Z,4.99
2018-03-14T01:07:36.310Z,4.85
2018-03-14T01:08:45.141Z,4.8
2018-03-14T01:09:53.967Z,4.8
2018-03-14T01:11:02.794Z,4.69
2018-03-14T01:12:11.623Z,4.88
2018-03-14T01:13:20.811Z,5.04
2018-03-14T01:14:29.642Z,4.99
2018-03-14T01:15:38.468Z,4.91
2018-03-14T01:16:47.296Z,4.77
2018-03-14T01:17:56.125Z,4.92
2018-03-14T01:19:05.003Z,4.96
2018-03-14T01:20:13.831Z,4.92
2018-03-14T01:21:22.684Z,4.82
2018-03-14T01:22:31.490Z,4.94
2018-03-14T01:23:40.319Z,4.84
2018-03-14T01:24:49.299Z,4.84
2018-03-14T01:25:58.126Z,4.7
2018-03-14T01:27:06.958Z,4.78
2018-03-14T01:28:16.358Z,4.72
2018-03-14T01:29:25.188Z,5.07
2018-03-14T01:30:34.166Z,5.03
2018-03-14T01:31:43.308Z,5.02
2018-03-14T01:32:52.141Z,4.91
2018-03-14T01:34:00.968Z,4.86
2018-03-14T01:35:09.798Z,4.8
2018-03-14T01:36:19.023Z,4.72
2018-03-14T01:37:27.848Z,4.72
2018-03-14T01:38:36.679Z,4.72
2018-03-14T01:39:45.506Z,4.92
2018-03-14T01:40:54.340Z,4.82
2018-03-14T01:42:03.319Z,4.77
2018-03-14T01:43:12.148Z,5.1
2018-03-14T01:44:21.290Z,4.96
2018-03-14T01:45:30.117Z,5.02
2018-03-14T01:46:38.943Z,5.04
2018-03-14T01:47:48.175Z,4.99
2018-03-14T01:48:57.004Z,4.78
2018-03-14T01:50:05.841Z,5
2018-03-14T01:51:14.945Z,4.97
2018-03-14T01:52:23.772Z,4.94
2018-03-14T01:53:32.704Z,4.77
2018-03-14T01:54:41.534Z,4.73
2018-03-14T01:55:50.362Z,4.8
2018-03-14T01:56:59.188Z,4.75
2018-03-14T01:58:08.023Z,4.77
2018-03-14T01:59:17.002Z,4.72
2018-03-14T02:00:25.830Z,4.77
2018-03-14T02:01:34.659Z,5.27
2018-03-14T02:02:43.489Z,4.96
2018-03-14T02:03:52.318Z,5.06
2018-03-14T02:05:01.542Z,5.03
2018-03-14T02:06:10.691Z,4.92
2018-03-14T02:07:19.520Z,4.75
2018-03-14T02:08:28.347Z,4.8
2018-03-14T02:09:37.175Z,4.75
2018-03-14T02:10:46.104Z,4.82
2018-03-14T02:11:54.932Z,4.73
2018-03-14T02:13:03.761Z,4.78
2018-03-14T02:14:12.591Z,4.78
2018-03-14T02:15:21.418Z,4.77
2018-03-14T02:16:30.346Z,4.69
2018-03-14T02:17:39.191Z,4.72
2018-03-14T02:18:48.005Z,4.7
2018-03-14T02:19:56.834Z,4.84
2018-03-14T02:21:05.663Z,4.89
2018-03-14T02:22:14.539Z,4.85
2018-03-14T02:23:23.372Z,4.78
2018-03-14T02:24:32.202Z,4.72
2018-03-14T02:25:41.034Z,4.78
2018-03-14T02:26:49.859Z,4.78
2018-03-14T02:27:58.888Z,4.85
2018-03-14T02:29:07.715Z,4.75
2018-03-14T02:30:16.872Z,4.72
2018-03-14T02:31:25.702Z,4.72
2018-03-14T02:32:34.531Z,4.7
2018-03-14T02:33:43.407Z,4.86
2018-03-14T02:34:52.522Z,4.82
2018-03-14T02:36:01.349Z,4.72
2018-03-14T02:37:10.180Z,5.09
2018-03-14T02:38:19.009Z,4.92
2018-03-14T02:39:27.835Z,4.75
2018-03-14T02:40:36.950Z,4.69
2018-03-14T02:41:45.780Z,4.78
2018-03-14T02:42:54.608Z,4.97
2018-03-14T02:44:03.434Z,4.78
2018-03-14T02:45:12.313Z,4.69
2018-03-14T02:46:21.142Z,4.77
2018-03-14T02:47:29.970Z,4.72
2018-03-14T02:48:38.801Z,4.58
2018-03-14T02:49:47.628Z,4.58
2018-03-14T02:50:56.557Z,4.77
2018-03-14T02:52:05.383Z,4.66
2018-03-14T02:53:14.213Z,4.7
2018-03-14T02:54:23.044Z,4.72
2018-03-14T02:55:31.870Z,4.69
2018-03-14T02:56:40.800Z,4.69
2018-03-14T02:57:49.629Z,4.8
2018-03-14T02:58:58.456Z,5.03
2018-03-14T03:00:07.286Z,4.73
2018-03-14T03:01:16.117Z,4.8
2018-03-14T03:02:25.193Z,4.73
2018-03-14T03:03:34.034Z,4.78
2018-03-14T03:04:42.856Z,4.73
2018-03-14T03:05:51.685Z,4.66
2018-03-14T03:07:00.510Z,4.82
2018-03-14T03:08:09.494Z,4.72
2018-03-14T03:09:18.320Z,4.88
2018-03-14T03:10:27.146Z,4.8
2018-03-14T03:11:35.976Z,4.75
2018-03-14T03:12:44.813Z,4.77
2018-03-14T03:13:53.631Z,5.13
2018-03-14T03:15:02.461Z,4.94
2018-03-14T03:16:11.289Z,4.99
2018-03-14T03:17:20.117Z,4.86
2018-03-14T03:18:29.219Z,4.78
2018-03-14T03:19:38.053Z,4.72
2018-03-14T03:20:46.888Z,4.72
2018-03-14T03:21:55.716Z,4.73
2018-03-14T03:23:04.546Z,5.04
2018-03-14T03:24:13.376Z,4.92
2018-03-14T03:25:22.256Z,4.88
2018-03-14T03:26:31.082Z,4.72
2018-03-14T03:27:39.912Z,4.89
2018-03-14T03:28:48.737Z,4.91
2018-03-14T03:29:57.567Z,4.84
2018-03-14T03:31:06.697Z,4.73
2018-03-14T03:32:15.530Z,4.78
2018-03-14T03:33:24.359Z,4.72
2018-03-14T03:34:33.468Z,4.72
2018-03-14T03:35:42.297Z,4.73
2018-03-14T03:36:51.501Z,4.84
2018-03-14T03:38:00.335Z,4.82
2018-03-14T03:39:09.168Z,4.84
2018-03-14T03:40:17.988Z,4.73
2018-03-14T03:41:26.818Z,4.8
2018-03-14T03:42:35.651Z,4.75
2018-03-14T03:43:44.478Z,5.09
2018-03-14T03:44:53.306Z,5.09
2018-03-14T03:46:02.135Z,5
2018-03-14T03:47:10.966Z,4.69
2018-03-14T03:48:19.843Z,4.72
2018-03-14T03:49:28.673Z,4.78
2018-03-14T03:50:37.502Z,4.7
2018-03-14T03:51:46.608Z,4.65
2018-03-14T03:52:55.442Z,4.63
2018-03-14T03:54:04.416Z,4.72
2018-03-14T03:55:13.245Z,4.7
2018-03-14T03:56:22.627Z,4.73
2018-03-14T03:57:31.453Z,4.89
2018-03-14T03:58:40.282Z,5.13
2018-03-14T03:59:49.159Z,5.04
2018-03-14T04:00:57.989Z,4.99
2018-03-14T04:02:06.817Z,4.77
2018-03-14T04:03:15.642Z,4.78
2018-03-14T04:04:24.471Z,5.09
2018-03-14T04:05:33.446Z,5.09
2018-03-14T04:06:42.554Z,5.04
2018-03-14T04:07:51.661Z,4.91
2018-03-14T04:09:00.487Z,4.77
2018-03-14T04:10:09.322Z,4.8
2018-03-14T04:11:18.662Z,4.86
2018-03-14T04:12:27.489Z,4.84
2018-03-14T04:13:36.319Z,4.91
2018-03-14T04:14:45.148Z,4.77
2018-03-14T04:15:53.977Z,4.77
2018-03-14T04:17:02.962Z,4.78
2018-03-14T04:18:11.784Z,4.7
2018-03-14T04:19:20.620Z,4.73
2018-03-14T04:20:29.446Z,4.75
2018-03-14T04:21:38.273Z,4.7
2018-03-14T04:22:47.202Z,4.75
2018-03-14T04:23:56.055Z,4.82
2018-03-14T04:25:04.865Z,4.82
2018-03-14T04:26:13.692Z,4.77
2018-03-14T04:27:22.519Z,4.72
2018-03-14T04:28:31.624Z,4.77
2018-03-14T04:29:40.455Z,4.73
2018-03-14T04:30:49.282Z,4.7
2018-03-14T04:31:58.109Z,4.67
2018-03-14T04:33:07.214Z,4.7
2018-03-14T04:34:16.144Z,4.72
2018-03-14T04:35:24.975Z,4.69
2018-03-14T04:36:34.084Z,4.73
2018-03-14T04:37:42.912Z,4.67
2018-03-14T04:38:51.739Z,4.72
2018-03-14T04:40:00.870Z,4.77
2018-03-14T04:41:09.698Z,4.66
2018-03-14T04:42:18.532Z,4.75
2018-03-14T04:43:27.633Z,4.73
2018-03-14T04:44:36.465Z,4.69
2018-03-14T04:45:45.344Z,4.78
2018-03-14T04:46:54.173Z,4.78
2018-03-14T04:48:03.000Z,4.99
2018-03-14T04:49:11.829Z,4.86
2018-03-14T04:50:20.660Z,4.78
2018-03-14T04:51:29.823Z,4.7
2018-03-14T04:52:38.653Z,4.75
2018-03-14T04:53:47.482Z,4.67
2018-03-14T04:54:56.315Z,4.69
2018-03-14T04:56:05.140Z,4.77
2018-03-14T04:57:14.022Z,5.24
2018-03-14T04:58:23.141Z,5.07
2018-03-14T04:59:32.246Z,5.02
2018-03-14T05:00:41.072Z,4.91
2018-03-14T05:01:49.902Z,4.92
2018-03-14T05:02:58.732Z,4.97
2018-03-14T05:04:07.564Z,4.88
2018-03-14T05:05:16.391Z,4.7
2018-03-14T05:06:25.219Z,4.72
2018-03-14T05:07:34.049Z,4.7
2018-03-14T05:08:42.929Z,4.75
2018-03-14T05:09:51.759Z,5.04
2018-03-14T05:11:00.587Z,5
2018-03-14T05:12:09.417Z,5.03
2018-03-14T05:13:18.247Z,4.7
2018-03-14T05:14:27.129Z,4.7
2018-03-14T05:15:36.507Z,4.77
2018-03-14T05:16:45.337Z,4.69
2018-03-14T05:17:54.171Z,4.69
2018-03-14T05:19:02.996Z,4.77
2018-03-14T05:20:11.877Z,4.82
2018-03-14T05:21:20.703Z,4.7
2018-03-14T05:22:29.538Z,4.69
2018-03-14T05:23:38.367Z,4.75
2018-03-14T05:24:47.197Z,4.77
2018-03-14T05:25:56.325Z,4.72
2018-03-14T05:27:05.156Z,4.7
2018-03-14T05:28:13.986Z,4.7
2018-03-14T05:29:22.813Z,4.7
2018-03-14T05:30:31.644Z,4.69
2018-03-14T05:31:40.573Z,4.69
2018-03-14T05:32:49.402Z,4.69
2018-03-14T05:33:58.507Z,4.89
2018-03-14T05:35:07.340Z,4.85
2018-03-14T05:36:16.445Z,4.72
2018-03-14T05:37:25.422Z,4.69
2018-03-14T05:38:34.253Z,4.7
2018-03-14T05:39:43.081Z,4.65
2018-03-14T05:40:51.910Z,4.65
2018-03-14T05:42:00.751Z,4.66
2018-03-14T05:43:10.007Z,4.62
2018-03-14T05:44:18.834Z,4.6
2018-03-14T05:45:27.939Z,4.58
2018-03-14T05:46:36.769Z,4.51
2018-03-14T05:47:45.662Z,4.54
2018-03-14T05:48:54.481Z,4.55
2018-03-14T05:50:03.310Z,4.52
2018-03-14T05:51:12.415Z,4.54
2018-03-14T05:52:21.244Z,4.54
2018-03-14T05:53:30.071Z,4.54
2018-03-14T05:54:39.049Z,4.63
2018-03-14T05:55:47.878Z,4.67
2018-03-14T05:56:56.711Z,4.59
2018-03-14T05:58:05.845Z,4.58
2018-03-14T05:59:14.674Z,4.52
2018-03-14T06:00:23.788Z,4.63
2018-03-14T06:01:32.616Z,4.62
2018-03-14T06:02:41.447Z,4.67
2018-03-14T06:03:50.274Z,4.54
2018-03-14T06:04:59.100Z,4.5
2018-03-14T06:06:07.937Z,4.7
2018-03-14T06:07:16.763Z,4.75
2018-03-14T06:08:25.590Z,4.67
2018-03-14T06:09:34.421Z,4.69
2018-03-14T06:10:43.253Z,4.69
2018-03-14T06:11:52.084Z,4.8
2018-03-14T06:13:00.912Z,4.73
2018-03-14T06:14:09.739Z,4.73
2018-03-14T06:15:18.579Z,4.72
2018-03-14T06:16:27.420Z,4.62
2018-03-14T06:17:36.241Z,4.58
2018-03-14T06:18:45.355Z,4.77
2018-03-14T06:19:54.206Z,4.7
2018-03-14T06:21:03.366Z,4.72
2018-03-14T06:22:12.285Z,4.75
2018-03-14T06:23:21.663Z,4.77
2018-03-14T06:24:31.110Z,4.75
2018-03-14T06:25:40.157Z,4.94
2018-03-14T06:26:49.058Z,4.77
2018-03-14T06:27:57.984Z,4.91
2018-03-14T06:29:06.883Z,4.78
2018-03-14T06:30:15.986Z,4.7
2018-03-14T06:31:24.817Z,4.73
2018-03-14T06:32:33.650Z,4.75
2018-03-14T06:33:42.757Z,4.67
2018-03-14T06:34:51.592Z,4.69
2018-03-14T06:36:00.413Z,4.69
2018-03-14T06:37:09.409Z,4.67
2018-03-14T06:38:18.229Z,4.62
2018-03-14T06:39:27.054Z,4.66
2018-03-14T06:40:35.888Z,4.63
2018-03-14T06:41:44.818Z,4.65
2018-03-14T06:42:53.649Z,4.59
2018-03-14T06:44:02.481Z,4.66
2018-03-14T06:45:11.312Z,4.63
2018-03-14T06:46:20.141Z,4.66
2018-03-14T06:47:28.968Z,4.58
2018-03-14T06:48:38.380Z,4.62
2018-03-14T06:49:47.209Z,4.63
2018-03-14T06:50:56.040Z,4.6
2018-03-14T06:52:05.167Z,4.7
2018-03-14T06:53:13.995Z,4.73
2018-03-14T06:54:23.207Z,4.72
2018-03-14T06:55:32.306Z,4.66
2018-03-14T06:56:41.185Z,4.77
2018-03-14T06:57:50.014Z,4.75
2018-03-14T06:58:58.873Z,4.72
2018-03-14T07:00:07.825Z,4.82
2018-03-14T07:01:16.653Z,4.84
2018-03-14T07:02:25.482Z,4.72
2018-03-14T07:03:34.313Z,4.69
2018-03-14T07:04:43.142Z,4.66
2018-03-14T07:05:52.073Z,4.55
2018-03-14T07:07:01.698Z,4.72
2018-03-14T07:08:10.996Z,4.7
2018-03-14T07:09:21.123Z,4.69
2018-03-14T07:10:30.409Z,4.65
2018-03-14T07:11:39.994Z,4.7
2018-03-14T07:12:49.374Z,4.6
2018-03-14T07:13:59.423Z,4.59
2018-03-14T07:15:09.211Z,4.65
2018-03-14T07:16:18.930Z,4.65
2018-03-14T07:17:28.628Z,4.7
2018-03-14T07:18:37.427Z,4.7
2018-03-14T07:19:46.257Z,4.84
2018-03-14T07:20:55.084Z,4.88
2018-03-14T07:22:03.915Z,4.73
2018-03-14T07:23:12.796Z,4.8
2018-03-14T07:24:21.626Z,4.77
2018-03-14T07:25:30.457Z,4.8
2018-03-14T07:26:39.282Z,4.72
2018-03-14T07:27:48.112Z,4.73
2018-03-14T07:28:57.420Z,4.8
2018-03-14T07:30:06.804Z,4.77
2018-03-14T07:31:15.635Z,4.82
2018-03-14T07:32:24.465Z,4.92
2018-03-14T07:33:33.295Z,4.89
2018-03-14T07:34:42.324Z,4.77
2018-03-14T07:35:51.155Z,4.8
2018-03-14T07:36:59.985Z,4.73
2018-03-14T07:38:08.822Z,4.82
2018-03-14T07:39:17.659Z,4.8
2018-03-14T07:40:26.736Z,4.92
2018-03-14T07:41:35.567Z,4.99
2018-03-14T07:42:44.397Z,4.92
2018-03-14T07:43:53.228Z,5.03
2018-03-14T07:45:02.058Z,5.02
2018-03-14T07:46:11.187Z,4.97
2018-03-14T07:47:20.018Z,4.97
2018-03-14T07:48:28.849Z,5.06
2018-03-14T07:49:37.680Z,5.04
2018-03-14T07:50:46.512Z,5.06
2018-03-14T07:51:55.441Z,5.06
2018-03-14T07:53:04.271Z,5.06
2018-03-14T07:54:13.103Z,5.09
2018-03-14T07:55:21.933Z,4.94
2018-03-14T07:56:30.765Z,5.07
2018-03-14T07:57:39.597Z,5.03
2018-03-14T07:58:48.427Z,5.22
2018-03-14T07:59:57.257Z,5.21
2018-03-14T08:01:06.368Z,5.24
2018-03-14T08:02:15.194Z,5.3
2018-03-14T08:03:24.124Z,5.33
2018-03-14T08:04:32.956Z,5.35
2018-03-14T08:05:41.823Z,5.36
2018-03-14T08:06:50.889Z,5.45
2018-03-14T08:07:59.720Z,5.63
2018-03-14T08:09:08.653Z,5.58
2018-03-14T08:10:17.485Z,5.56
2018-03-14T08:11:26.317Z,5.64
2018-03-14T08:12:35.149Z,5.63
2018-03-14T08:13:44.246Z,5.61
2018-03-14T08:14:52.818Z,5.53
2018-03-14T08:16:01.654Z,5.56
2018-03-14T08:17:10.481Z,5.64
2018-03-14T08:18:19.314Z,5.56
2018-03-14T08:19:28.145Z,5.53
2018-03-14T08:20:37.025Z,5.57
2018-03-14T08:21:45.855Z,5.56
2018-03-14T08:22:54.958Z,5.6
2018-03-14T08:24:03.794Z,5.67
2018-03-14T08:25:12.621Z,5.63
2018-03-14T08:26:21.604Z,5.67
2018-03-14T08:27:30.436Z,5.64
2018-03-14T08:28:39.267Z,5.64
2018-03-14T08:29:48.101Z,5.6
2018-03-14T08:30:56.928Z,5.71
2018-03-14T08:32:06.062Z,5.67
2018-03-14T08:33:14.897Z,5.74
2018-03-14T08:34:24.023Z,5.72
2018-03-14T08:35:33.170Z,5.64
2018-03-14T08:36:42.003Z,5.65
2018-03-14T08:37:50.984Z,5.78
2018-03-14T08:38:59.815Z,5.71
2018-03-14T08:40:08.648Z,5.91
2018-03-14T08:41:17.480Z,5.67
2018-03-14T08:42:26.314Z,5.81
2018-03-14T08:43:35.193Z,5.82
2018-03-14T08:44:44.028Z,5.91
2018-03-14T08:45:52.858Z,6.08
2018-03-14T08:47:01.723Z,5.9
2018-03-14T08:48:10.522Z,5.86
2018-03-14T08:49:19.352Z,5.82
2018-03-14T08:50:28.188Z,5.99
2018-03-14T08:51:37.015Z,6.14
2018-03-14T08:52:45.850Z,6.11
2018-03-14T08:53:54.682Z,6.27
2018-03-14T08:55:03.565Z,6.25
2018-03-14T08:56:12.397Z,6.34
2018-03-14T08:57:21.228Z,6.28
2018-03-14T08:58:30.065Z,6.31
2018-03-14T08:59:39.245Z,6.27
2018-03-14T09:00:48.177Z,6.3
2018-03-14T09:01:57.571Z,6.21
2018-03-14T09:03:06.401Z,6.41
2018-03-14T09:04:15.234Z,6.43
2018-03-14T09:05:24.343Z,6.44
2018-03-14T09:06:33.277Z,6.56
2018-03-14T09:07:42.110Z,6.51
2018-03-14T09:08:51.219Z,6.43
2018-03-14T09:10:00.052Z,6.51
2018-03-14T09:11:08.927Z,6.56
2018-03-14T09:12:18.792Z,6.54
2018-03-14T09:13:27.624Z,6.51
2018-03-14T09:14:36.457Z,6.52
2018-03-14T09:15:45.290Z,6.69
2018-03-14T09:16:54.124Z,6.67
2018-03-14T09:18:02.956Z,6.58
2018-03-14T09:19:11.793Z,6.71
2018-03-14T09:20:20.897Z,6.7
2018-03-14T09:21:29.729Z,6.64
2018-03-14T09:22:38.563Z,6.66
2018-03-14T09:23:47.502Z,6.73
2018-03-14T09:24:56.330Z,6.67
2018-03-14T09:26:05.164Z,6.7
2018-03-14T09:27:14.556Z,6.74
2018-03-14T09:28:23.662Z,6.79
2018-03-14T09:29:32.594Z,6.85
2018-03-14T09:30:41.429Z,6.94
2018-03-14T09:31:50.263Z,6.85
2018-03-14T09:32:59.096Z,6.8
2018-03-14T09:34:07.931Z,6.76
2018-03-14T09:35:16.916Z,6.84
2018-03-14T09:36:25.751Z,6.79
2018-03-14T09:37:34.584Z,6.81
2018-03-14T09:38:43.416Z,6.74
2018-03-14T09:39:52.252Z,6.74
2018-03-14T09:41:01.334Z,6.7
2018-03-14T09:42:10.168Z,6.81
2018-03-14T09:43:19.000Z,6.92
2018-03-14T09:44:27.832Z,6.87
2018-03-14T09:45:36.662Z,6.84
2018-03-14T09:46:45.748Z,6.85
2018-03-14T09:47:54.861Z,6.85
2018-03-14T09:49:03.697Z,6.88
2018-03-14T09:50:12.530Z,6.92
2018-03-14T09:51:21.363Z,6.91
2018-03-14T09:52:30.346Z,7.02
2018-03-14T09:53:39.454Z,7.1
2018-03-14T09:54:48.564Z,6.94
2018-03-14T09:55:57.398Z,6.8
2018-03-14T09:57:06.280Z,6.85
2018-03-14T09:58:15.642Z,6.89
2018-03-14T09:59:24.475Z,6.95
2018-03-14T10:00:33.310Z,6.98
2018-03-14T10:01:42.143Z,7.02
2018-03-14T10:02:50.977Z,7.09
2018-03-14T10:03:59.910Z,7.03
2018-03-14T10:05:08.746Z,7.06
2018-03-14T10:06:17.578Z,7.09
2018-03-14T10:07:26.414Z,6.99
2018-03-14T10:08:35.247Z,6.99
2018-03-14T10:09:44.129Z,6.92
2018-03-14T10:10:53.239Z,6.88
2018-03-14T10:12:02.071Z,6.88
2018-03-14T10:13:10.903Z,7.06
2018-03-14T10:14:19.739Z,7.09
2018-03-14T10:15:28.720Z,7.2
2018-03-14T10:16:37.831Z,7.21
2018-03-14T10:17:46.941Z,7.28
2018-03-14T10:18:55.772Z,7.34
2018-03-14T10:20:04.604Z,7.3
2018-03-14T10:21:13.873Z,7.25
2018-03-14T10:22:22.784Z,7.5
2018-03-14T10:23:31.542Z,7.43
2018-03-14T10:24:40.375Z,7.48
2018-03-14T10:25:49.317Z,7.46
2018-03-14T10:26:58.194Z,7.46
2018-03-14T10:28:07.026Z,7.46
2018-03-14T10:29:15.861Z,7.48
2018-03-14T10:30:24.693Z,7.45
2018-03-14T10:31:33.526Z,7.58
2018-03-14T10:32:42.412Z,7.46
2018-03-14T10:33:51.250Z,7.46
2018-03-14T10:35:00.079Z,7.48
2018-03-14T10:36:08.912Z,7.48
2018-03-14T10:37:17.746Z,7.34
2018-03-14T10:38:26.579Z,7.3
2018-03-14T10:39:35.417Z,7.31
2018-03-14T10:40:44.260Z,7.28
2018-03-14T10:41:53.091Z,7.24
2018-03-14T10:43:01.923Z,7.32
2018-03-14T10:44:10.904Z,7.31
2018-03-14T10:45:19.736Z,7.42
2018-03-14T10:46:28.573Z,7.39
2018-03-14T10:47:37.405Z,7.37
2018-03-14T10:48:46.237Z,7.35
2018-03-14T10:49:55.170Z,7.32
2018-03-14T10:51:04.004Z,7.28
2018-03-14T10:52:13.116Z,7.28
2018-03-14T10:53:21.946Z,7.32
2018-03-14T10:54:30.779Z,7.35
2018-03-14T10:55:39.711Z,7.6
2018-03-14T10:56:48.545Z,7.6
2018-03-14T10:57:57.379Z,7.6
2018-03-14T10:59:06.214Z,7.69
2018-03-14T11:00:15.047Z,7.63
2018-03-14T11:01:24.030Z,7.57
2018-03-14T11:02:32.864Z,7.58
2018-03-14T11:03:41.699Z,7.58
2018-03-14T11:04:50.814Z,7.63
2018-03-14T11:05:59.643Z,7.79
2018-03-14T11:07:08.904Z,7.79
2018-03-14T11:08:17.739Z,7.86
2018-03-14T11:09:26.573Z,7.92
2018-03-14T11:10:35.409Z,7.89
2018-03-14T11:11:44.244Z,7.77
2018-03-14T11:12:53.079Z,7.93
2018-03-14T11:14:01.915Z,7.85
2018-03-14T11:15:11.025Z,7.77
2018-03-14T11:16:19.860Z,7.64
2018-03-14T11:17:28.700Z,7.63
2018-03-14T11:18:37.725Z,7.67
2018-03-14T11:19:46.558Z,7.72
2018-03-14T11:20:55.391Z,7.68
2018-03-14T11:22:04.504Z,7.67
2018-03-14T11:23:13.341Z,7.69
2018-03-14T11:24:22.272Z,7.75
2018-03-14T11:25:31.109Z,7.69
2018-03-14T11:26:39.937Z,7.63
2018-03-14T11:27:48.771Z,7.71
2018-03-14T11:28:57.605Z,7.9
2018-03-14T11:30:06.739Z,7.85
2018-03-14T11:31:15.846Z,7.82
2018-03-14T11:32:24.954Z,7.83
2018-03-14T11:33:34.065Z,7.74
2018-03-14T11:34:42.901Z,7.68
2018-03-14T11:35:51.883Z,7.79
2018-03-14T11:37:00.719Z,7.71
2018-03-14T11:38:09.553Z,7.64
2018-03-14T11:39:18.663Z,7.68
2018-03-14T11:40:27.775Z,7.63
2018-03-14T11:41:36.988Z,7.67
2018-03-14T11:42:45.821Z,7.55
2018-03-14T11:43:54.655Z,7.57
2018-03-14T11:45:03.494Z,7.77
2018-03-14T11:46:12.328Z,7.75
2018-03-14T11:47:21.161Z,7.69
2018-03-14T11:48:29.996Z,7.49
2018-03-14T11:49:38.828Z,7.34
2018-03-14T11:50:47.661Z,7.34
2018-03-14T11:51:56.494Z,7.32
2018-03-14T11:53:05.629Z,7.21
2018-03-14T11:54:14.462Z,7.16
2018-03-14T11:55:23.297Z,7.17
2018-03-14T11:56:32.129Z,7.02
2018-03-14T11:57:41.239Z,7.23
2018-03-14T11:58:50.122Z,7.16
2018-03-14T11:59:58.957Z,7.3
2018-03-14T12:01:07.789Z,7.15
2018-03-14T12:02:16.621Z,7.13
2018-03-14T12:03:25.455Z,7.15
2018-03-14T12:04:34.339Z,7.17
2018-03-14T12:05:43.175Z,7.21
2018-03-14T12:06:52.007Z,7.21
2018-03-14T12:08:00.839Z,7.12
2018-03-14T12:09:09.673Z,7.16
2018-03-14T12:10:18.675Z,7.35
2018-03-14T12:11:27.490Z,7.2
2018-03-14T12:12:36.321Z,7.13
2018-03-14T12:13:45.152Z,7.05
2018-03-14T12:14:53.985Z,7.12
2018-03-14T12:16:02.870Z,7.05
2018-03-14T12:17:12.078Z,7.13
2018-03-14T12:18:21.188Z,7.12
2018-03-14T12:19:30.303Z,7.1
2018-03-14T12:20:39.137Z,7.12
2018-03-14T12:21:48.186Z,7.06
2018-03-14T12:22:57.012Z,7.03
2018-03-14T12:24:06.122Z,7.03
2018-03-14T12:25:14.956Z,7.05
2018-03-14T12:26:24.064Z,6.97
2018-03-14T12:27:32.947Z,6.91
2018-03-14T12:28:41.779Z,6.97
2018-03-14T12:29:50.609Z,6.98
2018-03-14T12:30:59.443Z,7.12
2018-03-14T12:32:08.554Z,7.12
2018-03-14T12:33:17.488Z,7.09
2018-03-14T12:34:26.318Z,7.13
2018-03-14T12:35:35.149Z,7.2
2018-03-14T12:36:43.985Z,7.1
2018-03-14T12:37:52.817Z,7.27
2018-03-14T12:39:01.701Z,7.17
2018-03-14T12:40:10.534Z,7.02
2018-03-14T12:41:19.366Z,7.09
2018-03-14T12:42:28.200Z,7.12
2018-03-14T12:43:37.034Z,7.09
2018-03-14T12:44:46.014Z,7.1
2018-03-14T12:45:54.847Z,7.15
2018-03-14T12:47:03.956Z,7.23
2018-03-14T12:48:12.788Z,7.12
2018-03-14T12:49:21.901Z,7.07
2018-03-14T12:50:30.884Z,7.03
2018-03-14T12:51:39.718Z,7.03
2018-03-14T12:52:48.550Z,7.06
2018-03-14T12:53:57.383Z,7.16
2018-03-14T12:55:06.215Z,7.12
2018-03-14T12:56:15.058Z,7.2
2018-03-14T12:57:23.879Z,7.2
2018-03-14T12:58:32.716Z,7.23
2018-03-14T12:59:41.548Z,7.2
2018-03-14T13:00:50.657Z,7.25
2018-03-14T13:02:00.163Z,7.31
2018-03-14T13:03:08.995Z,7.3
2018-03-14T13:04:18.105Z,7.25
2018-03-14T13:05:26.938Z,7.31
2018-03-14T13:06:35.770Z,7.25
2018-03-14T13:07:44.701Z,7.34
2018-03-14T13:08:53.534Z,7.25
2018-03-14T13:10:02.367Z,7.37
2018-03-14T13:11:11.200Z,7.43
2018-03-14T13:12:20.034Z,7.35
2018-03-14T13:13:28.919Z,7.45
2018-03-14T13:14:37.753Z,7.46
2018-03-14T13:15:46.584Z,7.4
2018-03-14T13:16:55.431Z,7.42
2018-03-14T13:18:04.301Z,7.5
2018-03-14T13:19:13.384Z,7.45
2018-03-14T13:20:22.216Z,7.55
2018-03-14T13:21:31.047Z,7.52
2018-03-14T13:22:39.897Z,7.52
2018-03-14T13:23:48.732Z,7.55
2018-03-14T13:24:57.714Z,7.61
2018-03-14T13:26:06.548Z,7.58
2018-03-14T13:27:15.379Z,7.57
2018-03-14T13:28:24.219Z,7.63
2018-03-14T13:29:33.059Z,7.61
2018-03-14T13:30:42.469Z,7.58
2018-03-14T13:31:51.303Z,7.58
2018-03-14T13:33:00.414Z,7.55
2018-03-14T13:34:09.249Z,7.53
2018-03-14T13:35:18.355Z,7.5
2018-03-14T13:36:27.388Z,7.46
2018-03-14T13:37:36.226Z,7.48
2018-03-14T13:38:45.055Z,7.45
2018-03-14T13:39:53.887Z,7.5
2018-03-14T13:41:03.001Z,7.48
2018-03-14T13:42:12.416Z,7.48
2018-03-14T13:43:21.250Z,7.37
2018-03-14T13:44:30.086Z,7.4
2018-03-14T13:45:38.918Z,7.4
2018-03-14T13:46:47.751Z,7.31
2018-03-14T13:47:56.583Z,7.3
2018-03-14T13:49:05.415Z,7.35
2018-03-14T13:50:14.248Z,7.31
2018-03-14T13:51:23.364Z,7.34
2018-03-14T13:52:32.196Z,7.3
2018-03-14T13:53:41.407Z,7.42
2018-03-14T13:54:50.522Z,7.45
2018-03-14T13:55:59.349Z,7.46
2018-03-14T13:57:08.184Z,7.45
2018-03-14T13:58:17.091Z,7.42
2018-03-14T13:59:26.060Z,7.32
2018-03-14T14:00:34.893Z,7.37
2018-03-14T14:01:43.743Z,7.42
2018-03-14T14:02:52.576Z,7.37
2018-03-14T14:04:01.621Z,7.45
2018-03-14T14:05:10.603Z,7.48
2018-03-14T14:06:19.471Z,7.45
2018-03-14T14:07:28.305Z,7.45
2018-03-14T14:08:37.138Z,7.5
2018-03-14T14:09:45.971Z,7.48
2018-03-14T14:10:54.810Z,7.46
2018-03-14T14:12:03.645Z,7.46
2018-03-14T14:13:12.792Z,7.49
2018-03-14T14:14:21.627Z,7.52
2018-03-14T14:15:30.459Z,7.61
2018-03-14T14:16:39.594Z,7.55
2018-03-14T14:17:48.701Z,7.5
2018-03-14T14:18:57.535Z,7.55
2018-03-14T14:20:06.368Z,7.53
2018-03-14T14:21:15.201Z,7.46
2018-03-14T14:22:24.463Z,7.46
2018-03-14T14:23:33.293Z,7.48
2018-03-14T14:24:42.126Z,7.42
2018-03-14T14:25:50.961Z,7.5
2018-03-14T14:27:00.069Z,7.31
2018-03-14T14:28:08.904Z,7.4
2018-03-14T14:29:17.735Z,7.42
2018-03-14T14:30:26.612Z,7.48
2018-03-14T14:31:35.685Z,7.46
2018-03-14T14:32:44.517Z,7.46
2018-03-14T14:33:53.349Z,7.4
2018-03-14T14:35:02.184Z,7.45
2018-03-14T14:36:11.017Z,7.49
2018-03-14T14:37:19.848Z,7.48
2018-03-14T14:38:28.680Z,7.46
2018-03-14T14:39:37.611Z,7.48
2018-03-14T14:40:46.446Z,7.48
2018-03-14T14:41:55.280Z,7.48
2018-03-14T14:43:04.390Z,7.45
2018-03-14T14:44:13.222Z,7.43
2018-03-14T14:45:22.256Z,7.5
2018-03-14T14:46:31.088Z,7.52
2018-03-14T14:47:39.921Z,7.46
2018-03-14T14:48:48.758Z,7.43
2018-03-14T14:49:57.586Z,7.32
2018-03-14T14:51:06.719Z,7.39
2018-03-14T14:52:15.836Z,7.34
2018-03-14T14:53:24.669Z,7.46
2018-03-14T14:54:33.500Z,7.31
2018-03-14T14:55:42.334Z,7.46
2018-03-14T14:56:51.320Z,7.39
2018-03-14T14:58:00.428Z,7.46
2018-03-14T14:59:09.259Z,7.49
2018-03-14T15:00:18.093Z,7.5
2018-03-14T15:01:26.927Z,7.5
2018-03-14T15:02:35.759Z,7.48
2018-03-14T15:03:44.596Z,7.53
2018-03-14T15:04:53.714Z,7.55
2018-03-14T15:06:02.544Z,7.58
2018-03-14T15:07:11.373Z,7.57
2018-03-14T15:08:20.308Z,7.55
2018-03-14T15:09:29.142Z,7.52
2018-03-14T15:10:38.250Z,7.55
2018-03-14T15:11:47.361Z,7.55
2018-03-14T15:12:56.250Z,7.58
2018-03-14T15:14:05.365Z,7.57
2018-03-14T15:15:14.197Z,7.55
2018-03-14T15:16:23.031Z,7.6
2018-03-14T15:17:31.867Z,7.55
2018-03-14T15:18:40.699Z,7.6
2018-03-14T15:19:49.806Z,7.48
2018-03-14T15:20:58.639Z,7.52
2018-03-14T15:22:07.472Z,7.45